Time;durP1;ratioP1;P1;durP2;ratioP2;P2;SDS_P1;SDS_P2;PMS_P1;PMS_P2;Temp;Humidity;BMP_temperature;BMP_pressure;BME280_temperature;BME280_humidity;BME280_pressure;Samples;Min_cycle;Max_cycle;Signal;HPM_P1;HPM_P2
2022/12/01 00:00:56;;;;;;;9.32;6.97;;;;;;;4.03;53.78;96137.59;5042053;28;20159;-70
2022/12/01 00:03:22;;;;;;;15.23;10.57;;;;;;;4.44;55.91;96137.81;5041662;28;20128;-68
2022/12/01 00:05:47;;;;;;;12.90;7.18;;;;;;;4.28;53.51;96132.09;5038372;28;20109;-69
2022/12/01 00:08:13;;;;;;;15.57;10.45;;;;;;;4.43;55.70;96133.47;5040239;28;20085;-68
2022/12/01 00:10:38;;;;;;;10.82;7.70;;;;;;;4.16;54.76;96141.88;5040317;28;20524;-68
2022/12/01 00:13:04;;;;;;;14.43;9.45;;;;;;;4.27;56.09;96133.91;5036627;28;20101;-70
2022/12/01 00:15:33;;;;;;;19.33;11.55;;;;;;;4.81;54.06;96140.97;5037939;28;20101;-68
2022/12/01 00:17:58;;;;;;;12.63;7.20;;;;;;;4.25;52.35;96129.75;5039594;28;20643;-69
2022/12/01 00:20:24;;;;;;;10.85;7.95;;;;;;;4.32;54.32;96130.91;5037745;28;20073;-70
2022/12/01 00:22:49;;;;;;;15.75;11.45;;;;;;;4.57;55.46;96136.78;5037634;28;20112;-69
2022/12/01 00:25:16;;;;;;;13.82;9.68;;;;;;;3.96;53.96;96130.28;5039668;28;20082;-70
2022/12/01 00:27:41;;;;;;;15.75;9.90;;;;;;;4.41;53.65;96138.06;5040183;28;21185;-71
2022/12/01 00:30:08;;;;;;;16.70;9.57;;;;;;;4.64;54.43;96132.69;5037058;28;20196;-70
2022/12/01 00:32:34;;;;;;;14.95;10.48;;;;;;;4.82;54.22;96140.84;5040430;28;20107;-71
2022/12/01 00:34:59;;;;;;;12.10;8.45;;;;;;;4.99;51.67;96132.50;5035545;28;20114;-69
2022/12/01 00:37:25;;;;;;;11.50;7.60;;;;;;;4.24;52.07;96139.44;5040316;28;20454;-70
2022/12/01 00:39:50;;;;;;;15.82;10.35;;;;;;;4.57;55.37;96139.44;5040803;28;20127;-70
2022/12/01 00:42:16;;;;;;;13.50;8.70;;;;;;;4.79;53.43;96135.00;5038889;28;20105;-69
2022/12/01 00:44:41;;;;;;;18.58;11.20;;;;;;;4.42;53.25;96120.44;5040604;28;20081;-69
2022/12/01 00:47:06;;;;;;;16.13;9.50;;;;;;;4.36;52.21;96124.44;5040727;28;20806;-69
2022/12/01 00:49:32;;;;;;;13.95;9.05;;;;;;;3.94;55.36;96125.16;5034689;28;20601;-69
2022/12/01 00:51:57;;;;;;;16.00;8.02;;;;;;;4.20;54.76;96124.84;5040368;28;20105;-69
2022/12/01 00:54:23;;;;;;;10.85;7.20;;;;;;;4.14;52.97;96128.81;5038223;28;20070;-70
2022/12/01 00:56:48;;;;;;;10.73;6.47;;;;;;;3.99;53.46;96133.53;5039261;28;20112;-70
2022/12/01 00:59:13;;;;;;;13.88;9.63;;;;;;;4.29;55.29;96129.34;5039921;28;20135;-70
2022/12/01 01:01:39;;;;;;;12.15;7.57;;;;;;;4.82;53.71;96137.38;5040447;28;20105;-70
2022/12/01 01:04:04;;;;;;;12.57;7.18;;;;;;;4.61;53.11;96127.66;5037114;28;20081;-70
2022/12/01 01:06:30;;;;;;;12.93;8.57;;;;;;;4.65;53.18;96137.00;5037425;28;20073;-66
2022/12/01 01:08:55;;;;;;;10.63;7.00;;;;;;;4.89;53.95;96124.50;5036319;28;20645;-67
2022/12/01 01:11:21;;;;;;;11.93;9.13;;;;;;;4.82;52.66;96126.81;5037842;28;20085;-67
2022/12/01 01:13:46;;;;;;;18.13;12.63;;;;;;;5.04;53.99;96130.28;5040322;28;20192;-68
2022/12/01 01:16:16;;;;;;;19.55;13.68;;;;;;;5.34;53.70;96126.84;5039201;28;20097;-67
2022/12/01 01:18:42;;;;;;;20.45;12.90;;;;;;;5.57;53.07;96125.81;5040985;28;20081;-67
2022/12/01 01:21:09;;;;;;;19.25;12.35;;;;;;;5.69;52.19;96126.56;5038874;28;20489;-68
2022/12/01 01:23:35;;;;;;;13.38;7.03;;;;;;;5.54;51.35;96128.75;5036908;28;20101;-67
2022/12/01 01:26:01;;;;;;;16.80;11.25;;;;;;;5.44;53.05;96141.91;5040473;28;20096;-67
2022/12/01 01:28:27;;;;;;;10.38;7.38;;;;;;;5.61;51.00;96133.34;5039985;28;20123;-67
2022/12/01 01:30:52;;;;;;;21.60;11.52;;;;;;;5.54;52.14;96137.50;5039687;28;20074;-67
2022/12/01 01:33:18;;;;;;;12.38;5.38;;;;;;;5.48;51.47;96144.16;5039944;28;20077;-66
2022/12/01 01:35:43;;;;;;;17.48;12.48;;;;;;;5.52;52.56;96139.44;5037902;28;20120;-67
2022/12/01 01:38:09;;;;;;;10.98;5.30;;;;;;;5.20;51.76;96138.59;5040262;28;20508;-67
2022/12/01 01:40:44;;;;;;;16.05;6.30;;;;;;;4.30;52.11;96141.59;5039680;28;20112;-67
2022/12/01 01:43:48;;;;;;;16.92;4.82;;;;;;;3.34;55.15;96154.41;5036327;28;20100;-67
2022/12/01 01:46:27;;;;;;;15.00;10.73;;;;;;;4.69;55.19;96151.59;5036376;28;20074;-67
2022/12/01 01:48:59;;;;;;;11.30;6.13;;;;;;;4.81;51.83;96155.03;5037430;28;20323;-67
2022/12/01 01:51:48;;;;;;;15.65;8.73;;;;;;;4.37;55.72;96149.81;5023404;28;20105;-68
2022/12/01 01:54:32;;;;;;;10.93;7.65;;;;;;;4.91;54.13;96155.09;5040195;28;20096;-67
2022/12/01 01:56:59;;;;;;;12.80;5.82;;;;;;;4.85;51.99;96150.31;5042261;28;20178;-66
2022/12/01 01:59:30;;;;;;;12.98;7.20;;;;;;;4.41;54.71;96150.41;5038767;28;20105;-67
2022/12/01 02:02:05;;;;;;;28.73;6.40;;;;;;;3.30;54.90;96156.41;5025318;28;20155;-66
2022/12/01 02:04:33;;;;;;;6.93;4.28;;;;;;;3.49;55.60;96160.28;5040215;28;20097;-66
2022/12/01 02:06:59;;;;;;;17.38;5.00;;;;;;;4.07;54.64;96146.94;5038038;28;20221;-67
2022/12/01 02:09:24;;;;;;;17.17;3.88;;;;;;;4.58;52.61;96151.66;5040577;28;20488;-67
2022/12/01 02:11:59;;;;;;;7.28;4.72;;;;;;;4.99;51.33;96148.34;5039994;28;20085;-67
2022/12/01 02:14:36;;;;;;;15.15;9.63;;;;;;;4.78;53.20;96138.59;5042043;28;20085;-66
2022/12/01 02:17:05;;;;;;;15.15;4.97;;;;;;;4.69;52.08;96137.56;5040643;28;20143;-66
2022/12/01 02:19:57;;;;;;;13.73;4.38;;;;;;;4.87;52.64;96139.63;5042480;28;20209;-67
2022/12/01 02:22:43;;;;;;;13.38;4.10;;;;;;;4.41;51.64;96140.69;5039655;28;20101;-67
2022/12/01 02:25:18;;;;;;;7.57;4.07;;;;;;;4.42;53.19;96145.00;5040451;28;20132;-67
2022/12/01 02:28:21;;;;;;;9.13;6.28;;;;;;;4.67;52.82;96145.63;5040014;28;20233;-67
2022/12/01 02:30:55;;;;;;;10.50;7.60;;;;;;;5.33;51.57;96141.03;5039941;28;20077;-67
2022/12/01 02:33:40;;;;;;;10.98;7.35;;;;;;;5.06;52.03;96144.22;5024517;28;20074;-67
2022/12/01 02:36:38;;;;;;;9.18;6.20;;;;;;;4.44;53.38;96140.44;5039534;28;20481;-67
2022/12/01 02:39:18;;;;;;;10.50;6.67;;;;;;;4.79;53.14;96140.25;5006256;28;20109;-67
2022/12/01 02:41:51;;;;;;;8.65;4.50;;;;;;;5.21;52.64;96135.00;5040820;28;20114;-67
2022/12/01 02:44:19;;;;;;;7.88;4.60;;;;;;;5.51;51.39;96144.84;5040661;28;20604;-67
2022/12/01 02:47:09;;;;;;;10.88;6.22;;;;;;;5.64;51.03;96142.81;5023523;28;20072;-67
2022/12/01 02:49:36;;;;;;;6.05;4.25;;;;;;;5.71;49.83;96132.53;5040743;28;20592;-67
2022/12/01 02:52:03;;;;;;;9.02;6.45;;;;;;;5.54;51.01;96128.75;5030607;28;20196;-67
2022/12/01 02:54:29;;;;;;;7.63;4.82;;;;;;;5.72;50.58;96135.03;5038060;28;20576;-67
2022/12/01 02:56:54;;;;;;;10.93;6.85;;;;;;;5.34;51.79;96136.59;5024842;28;20122;-67
2022/12/01 02:59:20;;;;;;;6.20;4.35;;;;;;;5.43;50.69;96134.94;5041613;28;20105;-67
2022/12/01 03:02:04;;;;;;;8.05;5.22;;;;;;;5.41;50.64;96135.06;5041856;28;20542;-67
2022/12/01 03:04:51;;;;;;;7.70;5.35;;;;;;;5.53;50.21;96134.97;5038730;28;20135;-67
2022/12/01 03:07:35;;;;;;;5.88;3.65;;;;;;;5.34;50.49;96141.88;5042448;28;20117;-67
2022/12/01 03:10:26;;;;;;;10.38;3.88;;;;;;;4.74;50.34;96134.53;5042064;28;20081;-67
2022/12/01 03:13:00;;;;;;;6.53;4.45;;;;;;;5.32;50.03;96134.09;5041184;28;20139;-67
2022/12/01 03:15:38;;;;;;;7.72;4.38;;;;;;;4.95;49.88;96129.25;5038823;28;20117;-67
2022/12/01 03:18:19;;;;;;;8.30;6.13;;;;;;;5.17;52.24;96130.94;5041339;28;20081;-67
2022/12/01 03:21:01;;;;;;;10.98;7.45;;;;;;;5.20;52.18;96121.91;5037920;28;20105;-67
2022/12/01 03:23:29;;;;;;;6.50;4.07;;;;;;;5.45;50.60;96130.38;5038810;28;20200;-67
2022/12/01 03:25:55;;;;;;;6.85;4.72;;;;;;;5.43;50.36;96127.88;5024703;28;20258;-67
2022/12/01 03:28:22;;;;;;;10.48;6.47;;;;;;;5.57;51.50;96129.31;5040773;28;20161;-67
2022/12/01 03:30:49;;;;;;;11.95;6.60;;;;;;;4.71;53.54;96133.00;5038569;28;20085;-67
2022/12/01 03:33:24;;;;;;;12.23;5.05;;;;;;;4.25;54.97;96125.28;5024063;28;20085;-67
2022/12/01 03:36:01;;;;;;;9.55;5.30;;;;;;;4.87;53.34;96132.56;5023236;28;20531;-67
2022/12/01 03:38:27;;;;;;;14.32;4.95;;;;;;;4.86;52.23;96130.06;5024568;28;20456;-67
2022/12/01 03:40:58;;;;;;;57.42;4.95;;;;;;;4.87;52.13;96129.94;5022203;28;20539;-67
2022/12/01 03:43:34;;;;;;;18.33;5.97;;;;;;;4.96;53.68;96123.84;5040431;28;20105;-67
2022/12/01 03:46:12;;;;;;;15.32;4.35;;;;;;;5.07;52.70;96122.97;5023299;28;20060;-67
2022/12/01 03:48:37;;;;;;;7.55;5.13;;;;;;;5.40;51.99;96120.22;5040412;28;20104;-67
2022/12/01 03:51:15;;;;;;;7.30;3.80;;;;;;;5.43;50.39;96119.09;5038649;28;20073;-67
2022/12/01 03:53:51;;;;;;;5.43;3.30;;;;;;;5.00;51.82;96131.53;5039103;28;20108;-67
2022/12/01 03:56:19;;;;;;;6.35;4.25;;;;;;;5.25;51.12;96124.16;5039138;28;20660;-67
2022/12/01 03:58:44;;;;;;;4.55;3.65;;;;;;;5.55;49.94;96122.50;5024316;28;20089;-67
2022/12/01 04:01:10;;;;;;;17.77;4.63;;;;;;;5.45;51.89;96115.34;5021220;28;20774;-67
2022/12/01 04:03:35;;;;;;;5.57;4.00;;;;;;;5.50;50.68;96114.97;5022159;28;20104;-67
2022/12/01 04:06:01;;;;;;;16.38;4.05;;;;;;;5.55;50.26;96118.03;5040695;28;20085;-67
2022/12/01 04:08:26;;;;;;;4.93;3.70;;;;;;;5.65;49.54;96118.09;5041516;28;20151;-67
2022/12/01 04:10:51;;;;;;;11.65;3.60;;;;;;;5.00;50.78;96123.59;5039040;28;20566;-67
2022/12/01 04:13:23;;;;;;;11.95;3.67;;;;;;;5.44;49.98;96126.88;5039351;28;20097;-67
2022/12/01 04:15:49;;;;;;;8.57;3.92;;;;;;;5.58;50.19;96128.34;5040963;28;20140;-67
2022/12/01 04:18:15;;;;;;;14.10;4.40;;;;;;;5.48;51.04;96138.03;5040154;28;20093;-67
2022/12/01 04:20:42;;;;;;;5.78;4.20;;;;;;;5.37;50.64;96131.03;5038642;28;20188;-67
2022/12/01 04:23:08;;;;;;;13.20;3.92;;;;;;;5.50;51.05;96136.09;5038899;28;20625;-67
2022/12/01 04:25:33;;;;;;;12.00;4.43;;;;;;;5.48;50.56;96136.22;5039040;28;20359;-67
2022/12/01 04:27:58;;;;;;;9.70;4.50;;;;;;;5.13;51.27;96128.72;5040096;28;20513;-67
2022/12/01 04:30:24;;;;;;;11.85;4.88;;;;;;;5.32;51.33;96138.53;5041073;28;20260;-67
2022/12/01 04:32:49;;;;;;;11.55;3.78;;;;;;;5.40;51.32;96132.56;5040113;28;20146;-67
2022/12/01 04:35:15;;;;;;;7.22;4.30;;;;;;;5.49;51.00;96126.50;5036929;28;20454;-67
2022/12/01 04:37:40;;;;;;;12.70;3.30;;;;;;;5.34;48.93;96129.50;5041320;28;20109;-67
2022/12/01 04:40:06;;;;;;;4.72;3.17;;;;;;;5.61;50.10;96124.59;5039983;28;20113;-67
2022/12/01 04:42:31;;;;;;;4.93;3.40;;;;;;;5.76;49.51;96118.94;5041069;28;20423;-67
2022/12/01 04:44:57;;;;;;;6.95;3.65;;;;;;;5.60;49.27;96117.63;5038221;28;20101;-67
2022/12/01 04:47:22;;;;;;;8.07;3.28;;;;;;;5.38;49.59;96127.44;5040000;28;20407;-67
2022/12/01 04:49:48;;;;;;;10.85;3.28;;;;;;;5.60;49.24;96128.19;5040104;28;20109;-67
2022/12/01 04:52:13;;;;;;;7.30;2.70;;;;;;;5.29;49.56;96123.78;5040583;28;20159;-67
2022/12/01 04:54:38;;;;;;;4.30;3.17;;;;;;;5.60;49.11;96125.56;5039565;28;20084;-67
2022/12/01 04:57:04;;;;;;;4.20;3.10;;;;;;;5.52;49.26;96118.31;5038743;28;20359;-67
2022/12/01 04:59:29;;;;;;;3.95;2.83;;;;;;;5.76;49.33;96119.78;5039704;28;20109;-67
2022/12/01 05:01:55;;;;;;;6.43;3.65;;;;;;;5.58;49.66;96127.50;5039239;28;20093;-67
2022/12/01 05:04:20;;;;;;;7.82;3.30;;;;;;;5.62;49.71;96126.28;5039548;28;20105;-67
2022/12/01 05:06:45;;;;;;;4.97;2.95;;;;;;;5.80;49.03;96117.69;5040872;28;20611;-67
2022/12/01 05:09:12;;;;;;;5.28;3.80;;;;;;;5.76;49.38;96125.06;5039602;28;20304;-67
2022/12/01 05:11:37;;;;;;;6.18;4.20;;;;;;;5.69;50.24;96119.50;5040453;28;20100;-67
2022/12/01 05:14:03;;;;;;;4.57;3.05;;;;;;;5.66;49.57;96130.31;5039630;28;20105;-67
2022/12/01 05:16:31;;;;;;;5.20;2.90;;;;;;;5.81;49.31;96128.13;5040495;28;20123;-67
2022/12/01 05:21:41;;;;;;;7.53;3.80;;;;;;;5.70;49.17;96131.72;5036419;28;20150;-67
2022/12/01 05:24:07;;;;;;;4.60;3.15;;;;;;;5.14;50.52;96131.19;5040771;28;20101;-67
2022/12/01 05:26:32;;;;;;;4.80;3.03;;;;;;;5.43;49.55;96132.31;5043657;28;20096;-67
2022/12/01 05:28:58;;;;;;;4.18;3.10;;;;;;;5.29;50.39;96138.78;5043548;28;20440;-66
2022/12/01 05:31:23;;;;;;;8.38;3.03;;;;;;;5.59;49.65;96132.66;5042666;28;20111;-67
2022/12/01 05:33:49;;;;;;;7.60;2.88;;;;;;;5.79;49.04;96131.88;5043725;28;20077;-67
2022/12/01 05:36:14;;;;;;;6.43;3.70;;;;;;;5.59;49.27;96135.31;5041899;28;20153;-67
2022/12/01 05:38:39;;;;;;;4.03;3.10;;;;;;;5.71;49.33;96140.47;5043651;28;20092;-67
2022/12/01 05:41:05;;;;;;;5.28;3.13;;;;;;;5.76;49.04;96134.78;5042990;28;20110;-67
2022/12/01 05:43:30;;;;;;;5.57;3.05;;;;;;;5.66;48.80;96138.25;5042713;28;20096;-67
2022/12/01 05:45:56;;;;;;;3.28;2.85;;;;;;;5.74;48.88;96132.28;5043313;28;20496;-67
2022/12/01 05:48:21;;;;;;;3.58;2.90;;;;;;;5.84;48.19;96137.59;5044226;28;20113;-67
2022/12/01 05:50:47;;;;;;;4.15;2.88;;;;;;;5.72;48.46;96132.41;5031436;28;20144;-67
2022/12/01 05:53:12;;;;;;;3.90;3.03;;;;;;;5.60;49.17;96130.84;5042129;28;20085;-67
2022/12/01 05:55:38;;;;;;;5.65;3.08;;;;;;;5.61;48.60;96137.78;5043529;28;20101;-67
2022/12/01 05:58:03;;;;;;;3.72;3.25;;;;;;;5.44;49.75;96144.56;5042527;28;20469;-67
2022/12/01 06:00:29;;;;;;;6.03;3.65;;;;;;;5.12;51.34;96142.84;5040042;28;20101;-67
2022/12/01 06:02:54;;;;;;;6.85;4.18;;;;;;;4.88;51.67;96144.78;5043244;28;20077;-67
2022/12/01 06:05:19;;;;;;;7.63;3.17;;;;;;;4.84;51.89;96143.38;5041443;28;20085;-67
2022/12/01 06:07:45;;;;;;;5.38;3.28;;;;;;;5.22;50.77;96146.41;5041939;28;20132;-67
2022/12/01 06:10:10;;;;;;;3.83;2.80;;;;;;;5.27;49.45;96140.72;5042748;28;20297;-67
2022/12/01 06:12:36;;;;;;;3.72;3.08;;;;;;;5.56;49.38;96147.94;5042414;28;20105;-67
2022/12/01 06:15:02;;;;;;;4.20;3.00;;;;;;;5.44;48.77;96153.31;5042568;28;20092;-67
2022/12/01 06:17:28;;;;;;;4.72;3.13;;;;;;;5.00;50.38;96150.00;5041536;28;20723;-67
2022/12/01 06:19:53;;;;;;;4.75;2.92;;;;;;;4.77;50.65;96150.13;5043368;28;20100;-67
2022/12/01 06:22:18;;;;;;;5.13;3.80;;;;;;;5.08;52.08;96150.22;5039581;28;20462;-67
2022/12/01 06:24:44;;;;;;;4.10;2.90;;;;;;;5.13;49.41;96155.94;5042073;28;20275;-67
2022/12/01 06:27:09;;;;;;;4.95;3.15;;;;;;;4.95;49.94;96153.00;5042155;28;20107;-67
2022/12/01 06:29:35;;;;;;;4.20;3.30;;;;;;;5.25;50.28;96156.69;5043673;28;20085;-67
2022/12/01 06:32:00;;;;;;;5.35;3.22;;;;;;;5.11;50.48;96160.50;5040559;28;20105;-67
2022/12/01 06:34:26;;;;;;;4.00;3.20;;;;;;;4.37;52.77;96163.00;5041319;28;20123;-67
2022/12/01 06:36:51;;;;;;;4.28;3.25;;;;;;;5.04;51.43;96160.16;5041089;28;20122;-67
2022/12/01 06:39:16;;;;;;;3.65;2.90;;;;;;;5.13;50.09;96155.94;5042438;28;20113;-66
2022/12/01 06:41:42;;;;;;;5.22;3.10;;;;;;;5.05;50.78;96163.63;5040915;28;20604;-67
2022/12/01 06:44:08;;;;;;;4.22;3.13;;;;;;;5.11;50.40;96162.31;5041066;28;20112;-67
2022/12/01 06:46:33;;;;;;;5.25;3.50;;;;;;;5.09;49.70;96171.19;5042142;28;20498;-67
2022/12/01 06:48:59;;;;;;;5.47;3.50;;;;;;;4.04;50.92;96167.41;5041017;28;20098;-67
2022/12/01 06:51:24;;;;;;;4.07;3.20;;;;;;;4.67;51.45;96172.00;5041468;28;20116;-67
2022/12/01 06:53:53;;;;;;;4.28;3.28;;;;;;;4.49;54.18;96163.78;5040582;28;20069;-67
2022/12/01 06:56:20;;;;;;;5.18;3.33;;;;;;;4.27;53.68;96172.63;5040798;28;20113;-69
2022/12/01 06:58:45;;;;;;;4.35;3.50;;;;;;;4.26;54.74;96171.78;5042800;28;20101;-69
2022/12/01 07:01:10;;;;;;;4.30;3.28;;;;;;;4.75;52.44;96167.88;5040972;28;20100;-69
2022/12/01 07:03:36;;;;;;;4.85;3.45;;;;;;;4.29;52.97;96179.44;5039271;28;20205;-69
2022/12/01 07:06:02;;;;;;;5.63;3.75;;;;;;;4.71;53.58;96172.56;5038710;28;20155;-69
2022/12/01 07:08:28;;;;;;;4.50;3.00;;;;;;;4.55;52.04;96173.00;5041188;28;20117;-69
2022/12/01 07:11:01;;;;;;;5.72;4.05;;;;;;;4.15;52.48;96175.28;5039974;28;20116;-69
2022/12/01 07:13:26;;;;;;;3.33;3.03;;;;;;;4.68;51.40;96178.09;5037818;28;20093;-69
2022/12/01 07:15:51;;;;;;;10.27;6.95;;;;;;;4.52;52.27;96178.53;5041292;28;20135;-69
2022/12/01 07:18:17;;;;;;;10.05;5.13;;;;;;;4.77;52.43;96181.78;5041869;28;20093;-69
2022/12/01 07:20:42;;;;;;;8.55;5.72;;;;;;;5.00;51.24;96179.03;5038876;28;20108;-70
2022/12/01 07:23:08;;;;;;;8.32;4.95;;;;;;;5.06;51.01;96186.44;5039469;28;20116;-69
2022/12/01 07:25:33;;;;;;;11.98;6.68;;;;;;;5.32;50.90;96189.53;5041426;28;20081;-70
2022/12/01 07:27:58;;;;;;;10.00;7.20;;;;;;;5.13;49.83;96189.44;5036278;28;20147;-70
2022/12/01 07:30:24;;;;;;;6.32;4.50;;;;;;;5.25;50.29;96192.81;5038210;28;20754;-67
2022/12/01 07:32:49;;;;;;;6.68;4.22;;;;;;;5.44;48.94;96190.28;5034451;28;20136;-67
2022/12/01 07:35:15;;;;;;;9.55;6.57;;;;;;;5.42;49.63;96191.38;5037918;28;20116;-67
2022/12/01 07:37:40;;;;;;;19.27;9.90;;;;;;;4.91;53.59;96199.09;5038218;28;20168;-67
2022/12/01 07:40:06;;;;;;;6.78;4.78;;;;;;;4.45;51.87;96194.84;5040588;28;20112;-67
2022/12/01 07:42:31;;;;;;;8.30;5.22;;;;;;;4.52;52.18;96197.81;5030998;28;20089;-67
2022/12/01 07:44:57;;;;;;;11.05;7.97;;;;;;;4.58;51.86;96201.75;5037292;28;20109;-67
2022/12/01 07:47:22;;;;;;;9.85;5.97;;;;;;;4.81;51.79;96199.88;5035199;28;20613;-67
2022/12/01 07:49:48;;;;;;;12.25;7.05;;;;;;;3.87;52.75;96201.19;5037319;28;20081;-67
2022/12/01 07:52:13;;;;;;;10.18;6.90;;;;;;;3.96;53.85;96204.91;5036967;28;20097;-67
2022/12/01 07:54:39;;;;;;;10.25;5.70;;;;;;;3.55;54.31;96202.75;5039326;28;20089;-67
2022/12/01 07:57:04;;;;;;;12.00;7.57;;;;;;;4.19;53.34;96205.69;5033210;28;20108;-67
2022/12/01 07:59:29;;;;;;;11.90;8.70;;;;;;;4.43;51.87;96195.94;5035948;28;20501;-67
2022/12/01 08:01:55;;;;;;;10.73;7.10;;;;;;;4.85;50.74;96205.72;5036877;28;20089;-67
2022/12/01 08:04:20;;;;;;;13.27;9.63;;;;;;;4.30;53.12;96202.22;5035618;28;20101;-67
2022/12/01 08:06:46;;;;;;;15.63;11.23;;;;;;;4.90;51.78;96203.53;5033658;28;20514;-69
2022/12/01 08:09:11;;;;;;;15.05;11.25;;;;;;;5.22;51.25;96200.03;5038881;28;20454;-69
2022/12/01 08:11:36;;;;;;;8.73;6.10;;;;;;;5.24;49.82;96204.34;5039565;28;20105;-69
2022/12/01 08:14:02;;;;;;;12.35;8.23;;;;;;;5.25;49.70;96209.50;5035109;28;20232;-69
2022/12/01 08:16:27;;;;;;;14.85;11.20;;;;;;;5.36;50.47;96211.22;5035160;28;20113;-70
2022/12/01 08:18:53;;;;;;;12.65;7.07;;;;;;;5.45;50.35;96202.50;5037136;28;20089;-69
2022/12/01 08:21:20;;;;;;;10.93;7.28;;;;;;;5.31;48.50;96205.50;5037708;28;20089;-69
2022/12/01 08:23:46;;;;;;;16.80;11.85;;;;;;;5.50;50.41;96207.41;5029847;28;20151;-70
2022/12/01 08:26:14;;;;;;;18.38;13.80;;;;;;;5.66;50.24;96209.56;5037490;28;20488;-69
2022/12/01 08:28:39;;;;;;;13.68;9.38;;;;;;;5.77;49.72;96208.63;5037786;28;20435;-69
2022/12/01 08:31:22;;;;;;;20.08;14.20;;;;;;;5.70;49.29;96210.13;5036915;28;20115;-69
2022/12/01 08:33:49;;;;;;;16.40;10.55;;;;;;;5.73;49.17;96210.72;5036663;28;20112;-69
2022/12/01 08:36:14;;;;;;;16.92;11.77;;;;;;;5.57;49.33;96211.19;5037469;28;20196;-69
2022/12/01 08:38:42;;;;;;;11.98;7.18;;;;;;;5.82;48.77;96202.97;5038043;28;20545;-69
2022/12/01 08:41:08;;;;;;;7.80;5.43;;;;;;;5.81;48.75;96209.19;5040640;28;20481;-69
2022/12/01 08:43:38;;;;;;;17.17;12.57;;;;;;;5.97;47.74;96206.06;5034585;28;20102;-69
2022/12/01 08:46:04;;;;;;;13.18;8.65;;;;;;;5.93;47.51;96210.78;5036231;28;20084;-69
2022/12/01 08:48:29;;;;;;;16.98;12.82;;;;;;;5.81;47.58;96209.19;5038109;28;20137;-69
2022/12/01 08:51:06;;;;;;;17.33;13.55;;;;;;;5.84;48.29;96211.56;5039665;28;20104;-69
2022/12/01 08:53:32;;;;;;;15.07;11.70;;;;;;;5.84;48.74;96214.22;5036633;28;20577;-69
2022/12/01 08:56:02;;;;;;;16.40;12.18;;;;;;;5.84;48.25;96216.88;5033513;28;20109;-69
2022/12/01 08:58:27;;;;;;;18.25;14.35;;;;;;;5.94;48.59;96220.38;5039135;28;20639;-69
2022/12/01 09:00:53;;;;;;;9.40;6.75;;;;;;;5.97;47.72;96222.78;5039193;28;20090;-69
2022/12/01 09:03:18;;;;;;;9.05;6.30;;;;;;;5.89;48.06;96224.41;5038118;28;20166;-69
2022/12/01 09:05:43;;;;;;;30.38;21.08;;;;;;;5.88;47.67;96223.56;5040017;28;20068;-69
2022/12/01 09:10:52;;;;;;;13.05;8.43;;;;;;;5.97;47.34;96224.56;5036557;28;20542;-69
2022/12/01 09:13:18;;;;;;;24.30;17.08;;;;;;;5.90;47.02;96221.63;5032474;28;20245;-69
2022/12/01 09:15:43;;;;;;;24.80;16.08;;;;;;;6.03;46.91;96223.19;5030248;28;20093;-69
2022/12/01 09:18:09;;;;;;;13.73;9.43;;;;;;;6.08;47.02;96223.63;5037122;28;20100;-67
2022/12/01 09:20:34;;;;;;;11.88;6.90;;;;;;;6.15;46.38;96218.66;5036777;28;20504;-67
2022/12/01 09:22:59;;;;;;;17.02;10.63;;;;;;;6.09;47.01;96230.59;5035785;28;20104;-69
2022/12/01 09:25:25;;;;;;;14.57;9.00;;;;;;;5.89;47.11;96230.53;5038881;28;20139;-69
2022/12/01 09:27:50;;;;;;;18.52;11.63;;;;;;;5.99;47.36;96226.09;5038147;28;20579;-69
2022/12/01 09:30:16;;;;;;;24.35;18.83;;;;;;;6.05;47.42;96234.47;5035439;28;20078;-69
2022/12/01 09:32:41;;;;;;;13.52;9.25;;;;;;;6.10;46.58;96221.69;5038388;28;20066;-69
2022/12/01 09:35:07;;;;;;;22.13;15.38;;;;;;;6.17;46.87;96222.81;5037176;28;20117;-69
2022/12/01 09:37:32;;;;;;;18.48;13.35;;;;;;;6.10;46.55;96238.41;5039411;28;20094;-69
2022/12/01 09:39:58;;;;;;;13.15;7.75;;;;;;;6.06;46.51;96241.44;5036868;28;20101;-69
2022/12/01 09:42:26;;;;;;;20.05;13.77;;;;;;;5.93;46.67;96239.88;5038335;28;20092;-69
2022/12/01 09:44:53;;;;;;;24.73;18.13;;;;;;;5.92;46.34;96240.81;5036879;28;20076;-69
2022/12/01 09:47:25;;;;;;;24.85;18.80;;;;;;;5.94;46.74;96245.97;5037422;28;20360;-69
2022/12/01 09:50:00;;;;;;;16.25;11.65;;;;;;;5.98;46.19;96235.00;5031681;28;20135;-70
2022/12/01 09:52:27;;;;;;;17.38;11.43;;;;;;;5.97;46.09;96233.34;5036702;28;20185;-70
2022/12/01 09:54:54;;;;;;;28.45;20.85;;;;;;;5.91;46.73;96227.75;5037833;28;20109;-69
2022/12/01 09:57:34;;;;;;;25.45;16.65;;;;;;;5.95;46.48;96229.97;5020305;28;20390;-70
2022/12/01 10:00:01;;;;;;;18.52;11.93;;;;;;;6.08;46.55;96229.75;5034885;28;20147;-70
2022/12/01 10:02:35;;;;;;;19.45;12.43;;;;;;;6.04;46.83;96227.50;5035336;28;20166;-69
2022/12/01 10:05:05;;;;;;;27.80;18.00;;;;;;;6.11;46.50;96223.34;5034521;28;20080;-70
2022/12/01 10:07:35;;;;;;;37.15;26.27;;;;;;;5.92;49.67;96227.59;5033272;28;20211;-70
2022/12/01 10:10:06;;;;;;;22.45;15.27;;;;;;;6.13;47.79;96221.44;5035437;28;20105;-70
2022/12/01 10:12:33;;;;;;;16.60;11.00;;;;;;;6.11;45.97;96221.56;5040695;28;20426;-70
2022/12/01 10:15:55;;;;;;;21.08;12.93;;;;;;;6.15;46.43;96219.47;5041384;28;20102;-70
2022/12/01 10:18:22;;;;;;;17.58;11.82;;;;;;;6.28;46.61;96215.72;4998993;28;20140;-70
2022/12/01 10:20:56;;;;;;;19.33;11.25;;;;;;;6.30;46.30;96211.16;4996788;28;20090;-70
2022/12/01 10:23:30;;;;;;;17.67;10.98;;;;;;;6.44;45.20;96210.78;5019136;28;20105;-69
2022/12/01 10:26:06;;;;;;;51.60;36.25;;;;;;;6.10;47.67;96221.69;5038272;28;20101;-69
2022/12/01 10:28:44;;;;;;;21.27;12.98;;;;;;;6.29;46.17;96204.19;5021969;28;20113;-70
2022/12/01 10:31:33;;;;;;;26.45;18.13;;;;;;;6.32;44.90;96210.03;5039137;28;20105;-70
2022/12/01 10:34:29;;;;;;;23.33;14.93;;;;;;;6.46;45.24;96203.53;5022887;28;20172;-70
2022/12/01 10:36:55;;;;;;;32.95;24.23;;;;;;;6.46;46.26;96202.69;5026736;28;20109;-70
2022/12/01 10:39:34;;;;;;;31.27;21.17;;;;;;;6.45;45.54;96208.94;5040536;28;20094;-70
2022/12/01 10:42:09;;;;;;;31.33;17.25;;;;;;;6.46;45.31;96206.16;5038056;28;20091;-70
2022/12/01 10:44:34;;;;;;;24.38;11.68;;;;;;;6.43;45.07;96202.97;5034084;28;20101;-69
2022/12/01 10:47:00;;;;;;;33.90;15.55;;;;;;;6.43;44.99;96197.69;5040165;28;20396;-69
2022/12/01 10:49:43;;;;;;;29.67;19.17;;;;;;;6.32;46.17;96198.66;5020353;28;20085;-70
2022/12/01 10:52:28;;;;;;;21.27;14.38;;;;;;;6.30;45.79;96197.94;5036463;28;20109;-70
2022/12/01 10:54:53;;;;;;;29.13;19.52;;;;;;;6.31;46.09;96199.59;5038852;28;20109;-70
2022/12/01 10:57:18;;;;;;;68.43;46.22;;;;;;;5.88;51.84;96201.59;5038913;28;20131;-70
2022/12/01 10:59:46;;;;;;;36.92;25.02;;;;;;;5.76;50.68;96198.19;5039539;28;20163;-69
2022/12/01 11:02:18;;;;;;;23.30;15.43;;;;;;;6.17;47.89;96196.38;5038625;28;20080;-69
2022/12/01 11:05:06;;;;;;;35.15;23.83;;;;;;;6.28;47.02;96195.41;5035566;28;20901;-69
2022/12/01 11:07:42;;;;;;;26.38;17.50;;;;;;;6.29;46.92;96193.63;5041291;28;20097;-69
2022/12/01 11:10:28;;;;;;;26.45;16.25;;;;;;;6.30;45.97;96193.50;5037398;28;20171;-69
2022/12/01 11:13:22;;;;;;;24.42;15.68;;;;;;;6.37;45.89;96193.78;5038100;28;20114;-69
2022/12/01 11:15:55;;;;;;;33.72;19.70;;;;;;;6.34;45.68;96191.41;5040533;28;20127;-69
2022/12/01 11:18:26;;;;;;;34.33;21.33;;;;;;;6.31;45.63;96191.66;5042319;28;20442;-69
2022/12/01 11:21:10;;;;;;;31.35;18.90;;;;;;;6.29;46.00;96189.16;5040229;28;20168;-69
2022/12/01 11:23:47;;;;;;;28.30;17.55;;;;;;;6.25;45.78;96188.59;5036358;28;20362;-69
2022/12/01 11:26:23;;;;;;;45.85;28.13;;;;;;;6.16;47.09;96184.16;5041957;28;20469;-68
2022/12/01 11:28:51;;;;;;;32.65;20.20;;;;;;;6.16;45.28;96184.16;5036848;28;20601;-68
2022/12/01 11:31:17;;;;;;;24.73;15.43;;;;;;;6.15;45.33;96184.28;5037688;28;20105;-68
2022/12/01 11:33:52;;;;;;;28.75;17.58;;;;;;;6.10;45.08;96185.53;5038081;28;20481;-68
2022/12/01 11:36:41;;;;;;;31.77;19.13;;;;;;;6.11;45.64;96186.34;5022068;28;20573;-68
2022/12/01 11:39:36;;;;;;;37.70;22.75;;;;;;;6.19;44.91;96181.22;5047493;28;20113;-68
2022/12/01 11:42:18;;;;;;;33.03;20.60;;;;;;;6.25;45.00;96185.13;5039397;28;20172;-68
2022/12/01 11:44:49;;;;;;;30.30;17.77;;;;;;;6.25;46.16;96183.31;5025049;28;20173;-68
2022/12/01 11:47:25;;;;;;;35.67;21.50;;;;;;;6.15;45.66;96177.16;5037987;28;20101;-69
2022/12/01 11:49:57;;;;;;;42.58;28.38;;;;;;;6.15;46.41;96184.28;5038182;28;20434;-68